METAR v bližini

 

LJLJ - Ljubljana/Brnik, Slovenia
Oddaljenost od postaje: W 41km
Podatki zajeti: 14/07/2020 15:00
Pretežno oblačno
Pretežno oblačno
 Veter iz smeri E
Veter: E 13 km/h
Temperatura: 23°C
Rosišče: 10°C
Vlažnost: 44%
Tlak: 1016 hPa
Oblačnost: Pretežno oblačno
Vidljivost: 10 km
Podrobnosti o oblakih: Rahlo oblačno 1524 m
Pretežno oblačno 2134 m
2020/07/14 13:00 LJLJ 141300Z 09007KT 9999 FEW050 BKN070 23/10 Q1016 NOSIG
LJMB - Maribor, Slovenia
Oddaljenost od postaje: NE 63km
Podatki zajeti: 14/07/2020 15:00
Jasno
Jasno
 Veter iz smeri SE
Veter: SE 7 km/h
Temperatura: 23°C
Rosišče: 8°C
Vlažnost: 38%
Tlak: 1016 hPa
Stanje: Jasno
Vidljivost: večja od 10 km
2020/07/14 13:00 LJMB 141300Z 13004KT 070V170 CAVOK 23/08 Q1016
 
LJPZ - Portoroz, Slovenia
Oddaljenost od postaje: SW 130km
Podatki zajeti: 14/07/2020 15:00
Rahlo oblačno
Rahlo oblačno
 Veter iz smeri NE
Veter: NE 7 km/h
Temperatura: 28°C
Rosišče: 9°C
Vlažnost: 30%
Tlak: 1013 hPa
Oblačnost: Rahlo oblačno
Vidljivost: 10 km
Podrobnosti o oblakih: Rahlo oblačno 1829 m
2020/07/14 13:00 LJPZ 141300Z 05004KT 330V150 9999 FEW060 28/09 Q1013
LJCE - Cerklje, Slovenia
Oddaljenost od postaje: ESE 49km
Podatki zajeti: 14/07/2020 15:00
Jasno
Jasno
 Veter iz smeri ENE
Veter: ENE 11 km/h
Temperatura: 22°C
Rosišče: 9°C
Vlažnost: 44%
Tlak: 1016 hPa
Stanje: Jasno
Vidljivost: večja od 10 km
2020/07/14 13:00 LJCE 141300Z 06006KT 020V080 CAVOK 22/09 Q1016 RMK BLU
 
LDZA - Zagreb/Pleso, Croatia
Oddaljenost od postaje: ESE 96km
Podatki zajeti: 14/07/2020 15:00
Jasno
Jasno
 Veter iz smeri ESE
Veter: ESE 13 km/h
Temperatura: 23°C
Rosišče: 9°C
Vlažnost: 41%
Tlak: 1016 hPa
Stanje: Jasno
Vidljivost: večja od 10 km
2020/07/14 13:00 LDZA 141300Z 11007KT 050V160 CAVOK 23/09 Q1016 NOSIG
LDRI - Rijeka/Omisalj, Croatia
Oddaljenost od postaje: SSW 109km
Podatki zajeti: 14/07/2020 15:00
Rahlo oblačno
Rahlo oblačno
 Veter iz smeri ENE
Veter: ENE 17 km/h
Temperatura: 27°C
Rosišče: 7°C
Vlažnost: 28%
Tlak: 1014 hPa
Oblačnost: Rahlo oblačno
Vidljivost: 10 km
Podrobnosti o oblakih: Rahlo oblačno 1524 m
2020/07/14 13:00 LDRI 141300Z 06009KT 010V120 9999 FEW050 27/07 Q1014
 
LDPL - Pula, Croatia
Oddaljenost od postaje: SSW 164km
Podatki zajeti: 14/07/2020 15:00
Rahlo oblačno
Rahlo oblačno
 Veter iz smeri E
Veter: E 20 km/h
Temperatura: 26°C
Rosišče: 7°C
Vlažnost: 30%
Tlak: 1014 hPa
Oblačnost: Rahlo oblačno
Vidljivost: 10 km
Podrobnosti o oblakih: Rahlo oblačno 1524 m
2020/07/14 13:00 LDPL 141300Z 10011KT 080V140 9999 FEW050 26/07 Q1014 NOSIG
LOWK - Klagenfurt(Civ/M, Austria
Oddaljenost od postaje: NW 76km
Podatki zajeti: 14/07/2020 14:50
Rahlo oblačno
Rahlo oblačno
 Veter iz smeri NE
Veter: NE 9 km/h
Temperatura: 23°C
Rosišče: 8°C
Vlažnost: 38%
Tlak: 1015 hPa
Oblačnost: Rahlo oblačno
Vidljivost: 10 km
Podrobnosti o oblakih: Rahlo oblačno 1829 m
2020/07/14 12:50 LOWK 141250Z 04005KT 320V110 9999 FEW060 23/08 Q1015 NOSIG
 
LOWG - Graz (mil/Civ), Austria
Oddaljenost od postaje: NNE 100km
Podatki zajeti: 14/07/2020 14:50
Rahlo oblačno
Rahlo oblačno
 Veter iz smeri SSE
Veter: SSE 13 km/h
Temperatura: 22°C
Rosišče: 10°C
Vlažnost: 47%
Tlak: 1016 hPa
Oblačnost: Rahlo oblačno
Vidljivost: 10 km
Podrobnosti o oblakih: Rahlo oblačno 1676 m
2020/07/14 12:50 LOWG 141250Z 16007KT 130V200 9999 FEW055 22/10 Q1016 NOSIG
LOAN - Wr.neustadt East, Austria
Oddaljenost od postaje: NNE 212km
Podatki zajeti: 14/07/2020 14:00
Delno oblačno
Delno oblačno
 Veter iz smeri E
Veter: E 19 km/h
Oblačnost: Delno oblačno
Podrobnosti o oblakih: Delno oblačno 1372 m
2020/07/14 12:00 LOAN 141200Z 10010KT 40KM SCT045CU
 
LIPQ - Ronchi Legionari, Italy
Oddaljenost od postaje: SW 35km
Podatki zajeti: 14/07/2020 14:50
Delno oblačno
Delno oblačno
 Veter iz smeri spremenljiv
Veter: spremenljiv 9 km/h
Temperatura: 27°C
Rosišče: 8°C
Vlažnost: 30%
Tlak: 1014 hPa
Oblačnost: Delno oblačno
Vidljivost: 10 km
Podrobnosti o oblakih: Delno oblačno 2408 m
2020/07/14 12:50 LIPQ 141250Z AUTO VRB05KT 9999 SCT079/// 27/08 Q1014
LIVT - Trieste, Italy
Oddaljenost od postaje: WSW 109km
Podatki zajeti: 14/07/2020 14:55
Rahlo oblačno
Rahlo oblačno
 Veter iz smeri spremenljiv
Veter: spremenljiv 0 km/h
Temperatura: 27°C
Rosišče: 11°C
Vlažnost: 37%
Tlak: 1014 hPa
Oblačnost: Rahlo oblačno
Vidljivost: 10 km
Podrobnosti o oblakih: Rahlo oblačno 1524 m
2020/07/14 12:55 LIVT 141255Z /////KT 9999 FEW050 27/11 Q1014
 
LIVO - Tarvisio, Italy
Oddaljenost od postaje: NNW 49km
Podatki zajeti: 14/07/2020 08:55
Ni posodobljen
Rahlo oblačno
Rahlo oblačno
 Veter iz smeri SSE
Veter: SSE 9 km/h
Temperatura: 13°C
Rosišče: 10°C
Vlažnost: 82%
Tlak: 1019 hPa
Oblačnost: Rahlo oblačno
Vidljivost: 10 km
Podrobnosti o oblakih: Rahlo oblačno 914 m
2020/07/14 06:55 LIVO 140655Z 15005KT 9999 FEW030 13/10 Q1019 RMK FEW VIS MIN 9999
LIPZ - Venezia/Tessera, Italy
Oddaljenost od postaje: WSW 217km
Podatki zajeti: 14/07/2020 14:50
Jasno
Jasno
 Veter iz smeri SE
Veter: SE 9 km/h
Temperatura: 25°C
Rosišče: 11°C
Vlažnost: 42%
Tlak: 1014 hPa
Stanje: Jasno
Vidljivost: večja od 10 km
2020/07/14 12:50 LIPZ 141250Z 14005KT CAVOK 25/11 Q1014 NOSIG
 
LHSM - Balaton, Hungary
Oddaljenost od postaje: ENE 177km
Podatki zajeti: 14/07/2020 14:45
Delno oblačno
Delno oblačno
 Veter iz smeri spremenljiv
Veter: spremenljiv 7 km/h
Temperatura: 23°C
Rosišče: 8°C
Vlažnost: 38%
Tlak: 1016 hPa
Oblačnost: Delno oblačno
Vidljivost: 9 km
2020/07/14 12:45 LHSM 141245Z AUTO VRB04KT 9000 NSC 23/08 Q1016 NOSIG